createdAt,value
2023-05-10T00:00:03.377Z,62.09
2023-05-10T00:03:26.127Z,62.33
2023-05-10T00:06:29.101Z,62.39
2023-05-10T00:09:31.899Z,62.52
2023-05-10T00:12:34.768Z,62.99
2023-05-10T00:15:37.843Z,63.18
2023-05-10T00:18:41.245Z,63.72
2023-05-10T00:21:44.023Z,64.18
2023-05-10T00:24:46.908Z,63.80
2023-05-10T00:27:50.651Z,64.81
2023-05-10T00:30:53.355Z,65.26
2023-05-10T00:33:56.755Z,66.05
2023-05-10T00:36:59.584Z,66.47
2023-05-10T00:40:02.417Z,67.34
2023-05-10T00:43:05.353Z,67.55
2023-05-10T00:46:08.823Z,67.54
2023-05-10T00:49:12.281Z,67.90
2023-05-10T00:52:15.258Z,67.85
2023-05-10T00:55:18.946Z,66.92
2023-05-10T00:58:21.812Z,66.95
2023-05-10T01:01:25.011Z,67.35
2023-05-10T01:04:28.668Z,66.86
2023-05-10T01:07:31.497Z,66.75
2023-05-10T01:10:34.388Z,67.01
2023-05-10T01:13:39.798Z,67.29
2023-05-10T01:16:45.280Z,67.25
2023-05-10T01:19:48.123Z,67.11
2023-05-10T01:23:24.542Z,67.12
2023-05-10T01:26:42.315Z,67.03
2023-05-10T01:30:17.472Z,66.93
2023-05-10T01:33:28.033Z,66.93
2023-05-10T01:36:36.455Z,66.98
2023-05-10T01:39:45.394Z,66.79
2023-05-10T01:42:54.337Z,66.78
2023-05-10T01:46:15.692Z,66.60
2023-05-10T01:49:27.821Z,66.39
2023-05-10T01:52:34.848Z,66.45
2023-05-10T01:55:46.691Z,66.07
2023-05-10T01:58:52.142Z,66.20
2023-05-10T02:01:56.645Z,66.08
2023-05-10T02:05:00.616Z,66.08
2023-05-10T02:08:07.003Z,66.21
2023-05-10T02:11:13.779Z,66.11
2023-05-10T02:14:17.936Z,65.90
2023-05-10T02:17:22.182Z,66.29
2023-05-10T02:20:26.577Z,66.06
2023-05-10T02:23:30.725Z,66.24
2023-05-10T02:26:36.324Z,66.41
2023-05-10T02:29:40.441Z,66.42
2023-05-10T02:32:44.239Z,66.38
2023-05-10T02:35:48.013Z,66.57
2023-05-10T02:38:52.853Z,66.54
2023-05-10T02:41:57.011Z,66.58
2023-05-10T02:45:08.409Z,66.53
2023-05-10T02:48:11.557Z,66.48
2023-05-10T02:51:19.274Z,66.57
2023-05-10T02:54:28.580Z,67.03
2023-05-10T02:57:35.456Z,67.13
2023-05-10T03:00:38.430Z,67.27
2023-05-10T03:03:41.261Z,67.17
2023-05-10T03:10:06.364Z,67.19
2023-05-10T03:13:28.208Z,67.30
2023-05-10T03:16:44.794Z,67.56
2023-05-10T03:20:12.858Z,67.89
2023-05-10T03:23:42.603Z,67.73
2023-05-10T03:26:46.786Z,67.56
2023-05-10T03:29:52.217Z,67.44
2023-05-10T03:32:55.285Z,67.14
2023-05-10T03:35:58.137Z,65.73
2023-05-10T03:39:00.924Z,63.51
2023-05-10T03:42:03.825Z,60.22
2023-05-10T03:45:07.499Z,57.29
2023-05-10T03:48:10.359Z,53.74
2023-05-10T03:51:13.191Z,50.72
2023-05-10T03:54:15.991Z,49.36
2023-05-10T03:57:18.771Z,47.94
2023-05-10T04:00:21.522Z,45.75
2023-05-10T04:03:24.634Z,43.41
2023-05-10T04:06:27.542Z,42.65
2023-05-10T04:09:30.419Z,41.09
2023-05-10T04:12:33.234Z,38.84
2023-05-10T04:15:37.087Z,36.92
2023-05-10T04:18:40.886Z,36.36
2023-05-10T04:21:43.633Z,35.06
2023-05-10T04:24:46.623Z,33.61
2023-05-10T04:27:49.408Z,33.16
2023-05-10T04:30:52.485Z,31.69
2023-05-10T04:33:55.478Z,30.77
2023-05-10T04:36:58.316Z,29.74
2023-05-10T04:40:01.189Z,28.91
2023-05-10T04:43:03.994Z,29.05
2023-05-10T04:46:07.030Z,30.12
2023-05-10T04:49:10.695Z,32.85
2023-05-10T04:52:13.789Z,34.66
2023-05-10T04:55:17.186Z,36.74
2023-05-10T04:58:19.992Z,38.53
2023-05-10T05:01:24.179Z,39.85
2023-05-10T05:04:27.104Z,41.40
2023-05-10T05:07:31.575Z,42.11
2023-05-10T05:10:34.333Z,42.50
2023-05-10T05:13:37.155Z,43.39
2023-05-10T05:16:40.001Z,43.71
2023-05-10T05:19:42.796Z,43.64
2023-05-10T05:22:46.006Z,43.58
2023-05-10T05:25:48.778Z,43.85
2023-05-10T05:28:54.874Z,44.16
2023-05-10T05:31:57.791Z,44.44
2023-05-10T05:35:00.678Z,44.47
2023-05-10T05:38:03.518Z,44.28
2023-05-10T05:41:06.364Z,44.48
2023-05-10T05:44:09.275Z,44.49
2023-05-10T05:47:12.169Z,44.27
2023-05-10T05:50:14.928Z,44.28
2023-05-10T05:53:17.693Z,44.03
2023-05-10T05:56:25.444Z,44.08
2023-05-10T05:59:28.974Z,44.18
2023-05-10T06:02:31.908Z,44.02
2023-05-10T06:05:34.772Z,43.64
2023-05-10T06:08:37.549Z,43.71
2023-05-10T06:11:40.345Z,43.12
2023-05-10T06:14:43.126Z,43.23
2023-05-10T06:17:45.911Z,43.22
2023-05-10T06:20:48.706Z,43.40
2023-05-10T06:23:51.528Z,43.49
2023-05-10T06:26:54.338Z,43.13
2023-05-10T06:30:09.161Z,42.59
2023-05-10T06:33:17.048Z,42.76
2023-05-10T06:36:19.934Z,42.62
2023-05-10T06:39:22.703Z,42.66
2023-05-10T06:42:26.589Z,42.53
2023-05-10T06:45:29.364Z,42.04
2023-05-10T06:48:32.169Z,41.28
2023-05-10T06:51:34.970Z,41.24
2023-05-10T06:54:37.782Z,41.87
2023-05-10T06:57:40.569Z,41.82
2023-05-10T07:00:44.929Z,40.47
2023-05-10T07:03:47.769Z,40.53
2023-05-10T07:06:50.810Z,40.17
2023-05-10T07:09:53.629Z,39.80
2023-05-10T07:12:56.611Z,40.53
2023-05-10T07:16:00.787Z,40.01
2023-05-10T07:19:03.725Z,40.07
2023-05-10T07:22:06.572Z,40.15
2023-05-10T07:25:09.748Z,40.94
2023-05-10T07:28:12.606Z,40.64
2023-05-10T07:31:15.407Z,40.51
2023-05-10T07:34:18.171Z,40.24
2023-05-10T07:37:21.093Z,39.76
2023-05-10T07:40:23.943Z,39.32
2023-05-10T07:43:26.735Z,38.89
2023-05-10T07:46:29.660Z,39.29
2023-05-10T07:49:32.521Z,38.89
2023-05-10T07:52:35.368Z,39.07
2023-05-10T07:55:38.136Z,37.89
2023-05-10T07:58:40.855Z,38.49
2023-05-10T08:01:45.055Z,37.87
2023-05-10T08:04:48.075Z,38.23
2023-05-10T08:07:51.330Z,38.54
2023-05-10T08:10:55.402Z,39.23
2023-05-10T08:13:59.720Z,39.64
2023-05-10T08:17:03.109Z,39.42
2023-05-10T08:20:24.890Z,39.16
2023-05-10T08:23:28.847Z,38.53
2023-05-10T08:26:32.502Z,38.25
2023-05-10T08:29:48.928Z,38.79
2023-05-10T08:32:55.961Z,38.82
2023-05-10T08:35:59.382Z,38.38
2023-05-10T08:39:23.017Z,37.83
2023-05-10T08:42:39.095Z,38.66
2023-05-10T08:45:54.101Z,37.98
2023-05-10T08:49:00.167Z,37.46
2023-05-10T08:52:06.595Z,37.44
2023-05-10T08:55:12.765Z,36.52
2023-05-10T08:58:23.160Z,36.45
2023-05-10T09:01:29.091Z,35.44
2023-05-10T09:04:37.491Z,35.00
2023-05-10T09:07:41.072Z,35.13
2023-05-10T09:10:48.910Z,35.11
2023-05-10T09:13:57.940Z,35.18
2023-05-10T09:17:09.028Z,34.90
2023-05-10T09:20:12.240Z,35.53
2023-05-10T09:23:20.018Z,36.51
2023-05-10T09:26:25.939Z,36.38
2023-05-10T09:29:43.883Z,35.93
2023-05-10T09:32:49.411Z,36.37
2023-05-10T09:35:53.952Z,36.09
2023-05-10T09:38:57.627Z,36.57
2023-05-10T09:42:08.257Z,36.35
2023-05-10T09:45:11.273Z,36.42
2023-05-10T09:48:22.880Z,36.73
2023-05-10T09:51:28.411Z,36.34
2023-05-10T09:54:32.785Z,35.56
2023-05-10T09:57:36.064Z,35.57
2023-05-10T10:00:53.426Z,36.45
2023-05-10T10:03:59.038Z,35.76
2023-05-10T10:07:03.894Z,36.28
2023-05-10T10:10:12.675Z,35.94
2023-05-10T10:13:16.572Z,34.13
2023-05-10T10:16:21.034Z,34.66
2023-05-10T10:19:25.905Z,35.96
2023-05-10T10:22:29.750Z,35.49
2023-05-10T10:25:33.440Z,34.71
2023-05-10T10:28:53.903Z,33.04
2023-05-10T10:32:35.900Z,34.46
2023-05-10T10:35:41.518Z,35.29
2023-05-10T10:38:47.233Z,34.56
2023-05-10T10:42:01.948Z,34.34
2023-05-10T10:45:18.778Z,34.20
2023-05-10T10:48:26.038Z,33.94
2023-05-10T10:51:32.457Z,34.33
2023-05-10T10:54:36.415Z,34.32
2023-05-10T10:57:46.310Z,34.97
2023-05-10T11:00:50.462Z,35.29
2023-05-10T11:04:00.139Z,34.52
2023-05-10T11:07:19.090Z,32.86
2023-05-10T11:10:23.110Z,34.29
2023-05-10T11:13:52.638Z,32.39
2023-05-10T11:16:55.569Z,30.73
2023-05-10T11:20:10.531Z,31.85
2023-05-10T11:23:16.972Z,31.78
2023-05-10T11:26:20.020Z,31.79
2023-05-10T11:29:23.725Z,32.11
2023-05-10T11:32:27.892Z,31.48
2023-05-10T11:35:32.095Z,31.17
2023-05-10T11:38:34.951Z,31.87
2023-05-10T11:41:38.334Z,32.49
2023-05-10T11:44:44.073Z,31.58
2023-05-10T11:47:51.397Z,30.81
2023-05-10T11:50:58.991Z,30.96
2023-05-10T11:54:01.869Z,31.90
2023-05-10T11:57:05.216Z,31.19
2023-05-10T12:00:09.232Z,31.54
2023-05-10T12:03:12.424Z,29.98
2023-05-10T12:06:17.257Z,30.87
2023-05-10T12:09:35.537Z,30.17
2023-05-10T12:12:51.401Z,31.20
2023-05-10T12:16:15.129Z,32.13
2023-05-10T12:19:22.730Z,32.11
2023-05-10T12:22:26.075Z,31.77
2023-05-10T12:25:34.654Z,32.85
2023-05-10T12:28:39.433Z,32.79
2023-05-10T12:31:57.732Z,31.75
2023-05-10T12:35:01.133Z,30.20
2023-05-10T12:38:27.448Z,29.44
2023-05-10T12:41:31.137Z,31.07
2023-05-10T12:44:34.112Z,29.31
2023-05-10T12:47:37.773Z,30.88
2023-05-10T12:50:41.123Z,31.29
2023-05-10T12:53:49.251Z,30.26
2023-05-10T12:56:54.837Z,30.81
2023-05-10T13:03:25.980Z,33.44
2023-05-10T13:06:29.459Z,33.66
2023-05-10T13:09:33.700Z,33.58
2023-05-10T13:12:39.502Z,33.09
2023-05-10T13:15:43.751Z,32.90
2023-05-10T13:18:47.446Z,33.12
2023-05-10T13:21:51.935Z,32.96
2023-05-10T13:24:55.314Z,32.74
2023-05-10T13:27:58.177Z,32.54
2023-05-10T13:31:01.709Z,32.65
2023-05-10T13:34:04.869Z,32.24
2023-05-10T13:37:08.324Z,32.18
2023-05-10T13:40:16.930Z,31.67
2023-05-10T13:43:21.034Z,31.90
2023-05-10T13:46:24.405Z,31.88
2023-05-10T13:49:27.872Z,32.10
2023-05-10T13:52:31.768Z,32.32
2023-05-10T13:55:35.789Z,33.22
2023-05-10T13:58:39.358Z,33.06
2023-05-10T14:01:43.918Z,33.09
2023-05-10T14:04:47.581Z,32.23
2023-05-10T14:07:52.461Z,32.00
2023-05-10T14:10:58.234Z,31.57
2023-05-10T14:14:02.765Z,31.63
2023-05-10T14:17:13.068Z,31.53
2023-05-10T14:20:16.535Z,31.58
2023-05-10T14:23:21.317Z,31.67
2023-05-10T14:26:24.388Z,31.00
2023-05-10T14:29:27.269Z,31.70
2023-05-10T14:32:31.107Z,31.42
2023-05-10T14:35:34.085Z,32.01
2023-05-10T14:38:37.986Z,31.25
2023-05-10T14:41:43.973Z,31.08
2023-05-10T14:44:47.753Z,30.78
2023-05-10T14:47:51.796Z,31.23
2023-05-10T14:50:55.524Z,31.17
2023-05-10T14:53:58.712Z,31.02
2023-05-10T14:57:04.691Z,31.11
2023-05-10T15:00:19.144Z,31.80
2023-05-10T15:03:27.391Z,31.92
2023-05-10T15:06:43.081Z,31.82
2023-05-10T15:09:48.588Z,31.93
2023-05-10T15:12:56.245Z,31.75
2023-05-10T15:16:05.286Z,32.03
2023-05-10T15:19:09.466Z,31.82
2023-05-10T15:22:17.841Z,31.90
2023-05-10T15:25:24.228Z,32.21
2023-05-10T15:28:28.592Z,32.91
2023-05-10T15:31:32.859Z,33.42
2023-05-10T15:35:00.873Z,33.34
2023-05-10T15:38:05.291Z,33.49
2023-05-10T15:41:10.717Z,33.94
2023-05-10T15:44:14.584Z,34.36
2023-05-10T15:47:18.505Z,34.78
2023-05-10T15:50:22.199Z,34.92
2023-05-10T15:53:27.989Z,35.35
2023-05-10T15:56:38.470Z,35.63
2023-05-10T15:59:43.016Z,35.44
2023-05-10T16:02:55.241Z,35.56
2023-05-10T16:06:01.067Z,35.81
2023-05-10T16:09:04.802Z,36.82
2023-05-10T16:12:12.743Z,36.56
2023-05-10T16:15:36.488Z,37.00
2023-05-10T16:18:40.317Z,37.27
2023-05-10T16:21:47.999Z,36.43
2023-05-10T16:24:53.654Z,36.70
2023-05-10T16:28:04.567Z,37.05
2023-05-10T16:31:13.004Z,39.00
2023-05-10T16:34:25.462Z,38.45
2023-05-10T16:37:28.976Z,39.93
2023-05-10T16:40:36.052Z,40.76
2023-05-10T16:43:41.747Z,40.30
2023-05-10T16:46:46.306Z,40.45
2023-05-10T16:49:54.402Z,39.55
2023-05-10T16:52:58.567Z,40.41
2023-05-10T16:56:28.825Z,40.02
2023-05-10T16:59:34.405Z,40.55
2023-05-10T17:02:50.465Z,39.66
2023-05-10T17:05:54.014Z,39.77
2023-05-10T17:08:58.701Z,39.56
2023-05-10T17:12:03.490Z,39.90
2023-05-10T17:15:13.278Z,39.68
2023-05-10T17:18:18.815Z,39.60
2023-05-10T17:21:24.120Z,39.39
2023-05-10T17:24:29.858Z,39.79
2023-05-10T17:27:35.584Z,40.20
2023-05-10T17:30:45.273Z,40.09
2023-05-10T17:33:49.700Z,40.21
2023-05-10T17:36:56.147Z,40.74
2023-05-10T17:40:00.717Z,40.75
2023-05-10T17:43:06.485Z,40.90
2023-05-10T17:46:19.155Z,41.19
2023-05-10T17:49:24.060Z,41.48
2023-05-10T17:52:32.092Z,41.68
2023-05-10T17:55:45.621Z,42.08
2023-05-10T17:58:51.399Z,41.87
2023-05-10T18:02:17.035Z,42.28
2023-05-10T18:05:23.055Z,42.15
2023-05-10T18:08:29.950Z,42.30
2023-05-10T18:11:55.896Z,42.53
2023-05-10T18:15:14.613Z,42.66
2023-05-10T18:18:25.457Z,43.27
2023-05-10T18:21:39.126Z,43.54
2023-05-10T18:24:47.120Z,43.71
2023-05-10T18:27:54.129Z,44.05
2023-05-10T18:31:01.235Z,44.83
2023-05-10T18:34:06.444Z,44.90
2023-05-10T18:37:25.895Z,44.96
2023-05-10T18:40:41.631Z,45.13
2023-05-10T18:44:32.067Z,45.14
2023-05-10T18:47:46.446Z,46.13
2023-05-10T18:50:51.044Z,46.20
2023-05-10T18:54:07.642Z,46.48
2023-05-10T18:57:16.462Z,46.50
2023-05-10T19:00:24.459Z,46.08
2023-05-10T19:03:32.036Z,46.96
2023-05-10T19:06:38.504Z,46.57
2023-05-10T19:09:41.690Z,47.01
2023-05-10T19:12:45.195Z,48.03
2023-05-10T19:16:06.197Z,47.50
2023-05-10T19:19:17.519Z,46.57
2023-05-10T19:22:32.072Z,46.71
2023-05-10T19:25:44.677Z,47.46
2023-05-10T19:28:51.382Z,48.24
2023-05-10T19:31:58.433Z,48.46
2023-05-10T19:35:10.942Z,48.39
2023-05-10T19:38:36.753Z,48.15
2023-05-10T19:41:51.292Z,47.93
2023-05-10T19:45:12.194Z,47.80
2023-05-10T19:48:23.600Z,48.88
2023-05-10T19:51:34.683Z,49.03
2023-05-10T19:54:47.124Z,49.61
2023-05-10T19:58:10.531Z,50.61
2023-05-10T20:01:33.908Z,49.47
2023-05-10T20:04:58.829Z,50.20
2023-05-10T20:08:17.203Z,50.02
2023-05-10T20:11:29.210Z,49.98
2023-05-10T20:14:43.237Z,50.19
2023-05-10T20:18:19.044Z,50.94
2023-05-10T20:22:06.497Z,51.86
2023-05-10T20:25:18.689Z,51.55
2023-05-10T20:28:23.545Z,51.14
2023-05-10T20:31:26.578Z,51.39
2023-05-10T20:34:32.280Z,51.77
2023-05-10T20:37:35.236Z,51.53
2023-05-10T20:40:39.123Z,51.94
2023-05-10T20:43:42.312Z,52.13
2023-05-10T20:46:45.290Z,52.05
2023-05-10T20:49:48.115Z,52.32
2023-05-10T20:52:53.810Z,51.91
2023-05-10T20:55:56.766Z,52.17
2023-05-10T20:58:59.593Z,53.01
2023-05-10T21:02:02.457Z,52.98
2023-05-10T21:05:06.064Z,53.26
2023-05-10T21:08:08.970Z,53.18
2023-05-10T21:11:11.909Z,52.29
2023-05-10T21:14:14.702Z,52.05
2023-05-10T21:17:19.914Z,52.93
2023-05-10T21:20:23.893Z,52.60
2023-05-10T21:23:26.835Z,53.60
2023-05-10T21:26:29.814Z,53.10
2023-05-10T21:29:32.622Z,52.86
2023-05-10T21:32:36.924Z,52.97
2023-05-10T21:35:42.918Z,53.79
2023-05-10T21:38:46.714Z,53.55
2023-05-10T21:41:49.514Z,54.27
2023-05-10T21:44:52.681Z,54.22
2023-05-10T21:47:55.805Z,53.93
2023-05-10T21:50:59.363Z,53.99
2023-05-10T21:54:02.209Z,54.57
2023-05-10T21:57:05.182Z,54.42
2023-05-10T22:00:10.395Z,54.64
2023-05-10T22:03:13.512Z,54.71
2023-05-10T22:06:16.581Z,55.66
2023-05-10T22:09:19.596Z,56.26
2023-05-10T22:12:22.538Z,55.41
2023-05-10T22:15:25.595Z,54.79
2023-05-10T22:18:28.924Z,54.92
2023-05-10T22:21:32.817Z,54.65
2023-05-10T22:24:36.909Z,54.62
2023-05-10T22:27:40.756Z,55.25
2023-05-10T22:30:43.954Z,55.57
2023-05-10T22:33:47.030Z,55.71
2023-05-10T22:36:50.583Z,55.55
2023-05-10T22:39:53.745Z,55.41
2023-05-10T22:42:56.652Z,56.23
2023-05-10T22:45:59.637Z,56.74
2023-05-10T22:49:02.713Z,57.64
2023-05-10T22:52:05.578Z,57.71
2023-05-10T22:55:09.618Z,57.55
2023-05-10T22:58:12.810Z,56.87
2023-05-10T23:01:15.957Z,57.32
2023-05-10T23:04:18.899Z,57.48
2023-05-10T23:07:21.777Z,58.23
2023-05-10T23:10:24.637Z,58.96
2023-05-10T23:13:27.681Z,58.90
2023-05-10T23:16:30.743Z,59.34
2023-05-10T23:19:33.790Z,59.41
2023-05-10T23:22:37.509Z,59.62
2023-05-10T23:25:40.677Z,59.47
2023-05-10T23:28:43.790Z,60.26
2023-05-10T23:31:50.733Z,59.80
2023-05-10T23:34:53.889Z,59.50
2023-05-10T23:37:56.852Z,60.85
2023-05-10T23:40:59.669Z,61.64
2023-05-10T23:44:02.737Z,61.71
2023-05-10T23:47:06.116Z,61.02
2023-05-10T23:50:09.706Z,61.13
2023-05-10T23:53:12.702Z,60.68
2023-05-10T23:56:15.737Z,61.56
2023-05-10T23:59:18.740Z,61.93
